Westrac — WTH4325 — position and weather

sailwx.info

Track history (hours):
 
Tides and Currents Weather Stations Pressure Air Temp Water Temp Dewpoint Dewpoint Depression Visibility Wind Speed Wind Dir Waves Ship Positions

Westrac

Owner: WESTERN TOWBOAT CO, SEATTLE, WA. More information available from US FCC via Universal Licensing System and Coast Guard Vessel Documentation Center.

Last reported at 2014-Dec-21 00:33 UTC. Time now 2014-Dec-21 01:11 UTC.
Position N 47°33' W 122°20'.

Length 23 m; draft 5 m.

Type: Tug. MMSI: 366993010.

Date/timePositionNaut miles runAvg speedWind from/ knotsBaromVisibWave heightAir tempDewpointWater temp
2014-Dec-21 00:33N 47°33' W 122°20'3 3.2
2014-Dec-20 23:33N 47°36' W 122°22'0 0.2
2014-Dec-20 22:33N 47°35' W 122°22'2 0.1
2014-Dec-20 02:34N 47°34' W 122°21'0 0.0
2014-Dec-20 01:33N 47°34' W 122°21'1 1.0
2014-Dec-20 00:34N 47°33' W 122°20'2 2.1
2014-Dec-19 23:34N 47°35' W 122°21'0 0.2
2014-Dec-19 22:34N 47°35' W 122°22'0 0.3
2014-Dec-19 21:34N 47°35' W 122°21'0 0.1
2014-Dec-19 20:34N 47°36' W 122°21'1 1.5
2014-Dec-19 19:34N 47°34' W 122°21'0 0.0
2014-Dec-19 18:34N 47°34' W 122°21'0 0.0
2014-Dec-19 17:34N 47°34' W 122°21'0 0.0
2014-Dec-19 16:34N 47°34' W 122°21'1 1.1
2014-Dec-19 15:34N 47°35' W 122°22'1 0.1
2014-Dec-18 22:31N 47°34' W 122°21'0 0.4
2014-Dec-18 21:33N 47°34' W 122°21'0 0.3
2014-Dec-18 20:33N 47°34' W 122°21'1 0.9
2014-Dec-18 19:33N 47°35' W 122°22'2 2.4
2014-Dec-18 18:33N 47°33' W 122°20'0 0.0
2014-Dec-18 17:33N 47°33' W 122°20'2 2.1
2014-Dec-18 16:33N 47°35' W 122°22'0 0.0
2014-Dec-18 15:33N 47°35' W 122°22'1 0.1
2014-Dec-18 04:21N 47°34' W 122°21'0 0.6
2014-Dec-18 03:33N 47°34' W 122°21'1 0.5
2014-Dec-18 02:34N 47°35' W 122°22'1 1.4
2014-Dec-18 01:34N 47°34' W 122°21'2 1.7
2014-Dec-18 00:33N 47°35' W 122°21'3 2.7
2014-Dec-17 23:34N 47°33' W 122°20'0 0.0
2014-Dec-17 22:33N 47°33' W 122°20'1 0.8
2014-Dec-17 21:33N 47°33' W 122°21'2 1.9
2014-Dec-17 20:33N 47°35' W 122°21'1 0.9
2014-Dec-17 19:33N 47°34' W 122°21'0 0.5
2014-Dec-17 18:33N 47°34' W 122°21'1 0.1
2014-Dec-16 21:33N 47°33' W 122°20'3 2.6
2014-Dec-16 20:33N 47°35' W 122°21'0 0.0
2014-Dec-16 19:33N 47°35' W 122°21'1 1.5
2014-Dec-16 18:33N 47°34' W 122°21'0 0.3
2014-Dec-16 17:33N 47°34' W 122°21'0 0.0
2014-Dec-16 16:33N 47°34' W 122°21'0 0.4
2014-Dec-16 15:33N 47°34' W 122°21'1 0.0
2014-Dec-16 02:33N 47°33' W 122°21'0 0.0
2014-Dec-16 01:10N 47°33' W 122°20'3 2.8
2014-Dec-16 00:16N 47°36' W 122°21'1 0.9
2014-Dec-15 23:34N 47°35' W 122°22'2 2.3
2014-Dec-15 22:33N 47°33' W 122°21'0 0.0
2014-Dec-15 21:33N 47°33' W 122°21'0 0.1
2014-Dec-15 20:33N 47°33' W 122°21'0 0.0
2014-Dec-15 19:33N 47°33' W 122°21'1 0.5
2014-Dec-15 18:33N 47°34' W 122°21'2 1.6
2014-Dec-15 17:33N 47°35' W 122°20'2 2.2
2014-Dec-15 16:34N 47°33' W 122°21'1 0.9
2014-Dec-15 15:33N 47°34' W 122°21'0 0.0
2014-Dec-15 14:33N 47°34' W 122°21'0 0.0
2014-Dec-15 13:34N 47°34' W 122°21'0 0.0
2014-Dec-15 12:33N 47°34' W 122°21'0 0.0
2014-Dec-15 11:34N 47°34' W 122°21'0 0.0
2014-Dec-15 10:34N 47°34' W 122°21'0 0.0
2014-Dec-15 09:33N 47°34' W 122°21'0 0.1
2014-Dec-15 08:30N 47°34' W 122°21'1 0.9
2014-Dec-15 07:33N 47°33' W 122°21'1 0.8
2014-Dec-15 06:22N 47°34' W 122°21'2 2.2
2014-Dec-15 05:34N 47°36' W 122°22'2 1.7
2014-Dec-15 04:34N 47°34' W 122°21'0 0.0
2014-Dec-15 03:33N 47°34' W 122°21'0 0.0
2014-Dec-15 02:34N 47°34' W 122°21'0 0.0
2014-Dec-15 01:34N 47°34' W 122°21'0 0.0
2014-Dec-15 00:33N 47°34' W 122°21'1 1.0
2014-Dec-14 23:33N 47°33' W 122°21'0 0.1
2014-Dec-14 22:33N 47°33' W 122°21'0 0.0
2014-Dec-14 21:33N 47°33' W 122°21'0 0.2
2014-Dec-14 20:33N 47°33' W 122°21'0 0.2
2014-Dec-14 19:34N 47°33' W 122°21'2 0.1
2014-Dec-14 00:33N 47°35' W 122°21'3 2.6
2014-Dec-13 23:33N 47°33' W 122°20'0 0.5
2014-Dec-13 22:33N 47°33' W 122°21'0 0.0
2014-Dec-13 21:33N 47°33' W 122°21'0 0.0
2014-Dec-13 20:33N 47°33' W 122°21'2 1.6
2014-Dec-13 19:33N 47°35' W 122°22'1 0.6
2014-Dec-13 18:33N 47°34' W 122°21'1 1.0
2014-Dec-13 17:33N 47°35' W 122°22'1 1.2
2014-Dec-13 16:33N 47°34' W 122°21'0 0.1
2014-Dec-13 15:33N 47°34' W 122°21'0 0.0
2014-Dec-13 14:33N 47°34' W 122°21'0 0.0
2014-Dec-13 13:33N 47°34' W 122°21'0 0.0
2014-Dec-13 12:33N 47°34' W 122°21'0 0.0
2014-Dec-13 11:33N 47°34' W 122°21'0 0.0
2014-Dec-13 10:33N 47°34' W 122°21'0 0.0
2014-Dec-13 09:33N 47°34' W 122°21'0 0.0
2014-Dec-13 08:34N 47°34' W 122°21'0 0.0
2014-Dec-13 07:33N 47°34' W 122°21'2 1.7
2014-Dec-13 06:33N 47°35' W 122°22'1 1.1
2014-Dec-13 05:33N 47°34' W 122°21'1 1.4
2014-Dec-13 04:33N 47°36' W 122°22'1 0.9
2014-Dec-13 03:33N 47°35' W 122°22'0 0.4
2014-Dec-13 02:33N 47°35' W 122°22'2 1.7
2014-Dec-13 01:33N 47°33' W 122°20'3 3.0
2014-Dec-13 00:33N 47°36' W 122°20'1 1.1
2014-Dec-12 23:33N 47°35' W 122°21'0 0.4
2014-Dec-12 22:33N 47°35' W 122°21'1 0.8
2014-Dec-12 21:33N 47°36' W 122°22'2 2.0
2014-Dec-12 20:33N 47°34' W 122°21'0 0.0
2014-Dec-11 06:06N 47°34' W 122°21'1 1.1
2014-Dec-11 05:33N 47°34' W 122°21'2 1.5
2014-Dec-11 04:33N 47°33' W 122°20'0 0.4
2014-Dec-11 03:32N 47°33' W 122°20'4 3.9
2014-Dec-11 02:34N 47°36' W 122°23'3 3.4
2014-Dec-11 01:34N 47°33' W 122°20'1 0.9
2014-Dec-11 00:34N 47°34' W 122°21'  
Track history (hours):
 
Tides and Currents Weather Stations Pressure Air Temp Water Temp Dewpoint Dewpoint Depression Visibility Wind Speed Wind Dir Waves Ship Positions

Westrac

Owner: WESTERN TOWBOAT CO, SEATTLE, WA. More information available from US FCC via Universal Licensing System and Coast Guard Vessel Documentation Center.

Last reported at 2014-Dec-21 00:33 UTC. Time now 2014-Dec-21 01:11 UTC.
Position N 47°33' W 122°20'.

Length 23 m; draft 5 m.

Type: Tug. MMSI: 366993010.

Date/timePositionNaut miles runAvg speedWind from/ knotsBaromVisibWave heightAir tempDewpointWater temp
2014-Dec-21 00:33N 47°33' W 122°20'3 3.2
2014-Dec-20 23:33N 47°36' W 122°22'0 0.2
2014-Dec-20 22:33N 47°35' W 122°22'2 0.1
2014-Dec-20 02:34N 47°34' W 122°21'0 0.0
2014-Dec-20 01:33N 47°34' W 122°21'1 1.0
2014-Dec-20 00:34N 47°33' W 122°20'2 2.1
2014-Dec-19 23:34N 47°35' W 122°21'0 0.2
2014-Dec-19 22:34N 47°35' W 122°22'0 0.3
2014-Dec-19 21:34N 47°35' W 122°21'0 0.1
2014-Dec-19 20:34N 47°36' W 122°21'1 1.5
2014-Dec-19 19:34N 47°34' W 122°21'0 0.0
2014-Dec-19 18:34N 47°34' W 122°21'0 0.0
2014-Dec-19 17:34N 47°34' W 122°21'0 0.0
2014-Dec-19 16:34N 47°34' W 122°21'1 1.1
2014-Dec-19 15:34N 47°35' W 122°22'1 0.1
2014-Dec-18 22:31N 47°34' W 122°21'0 0.4
2014-Dec-18 21:33N 47°34' W 122°21'0 0.3
2014-Dec-18 20:33N 47°34' W 122°21'1 0.9
2014-Dec-18 19:33N 47°35' W 122°22'2 2.4
2014-Dec-18 18:33N 47°33' W 122°20'0 0.0
2014-Dec-18 17:33N 47°33' W 122°20'2 2.1
2014-Dec-18 16:33N 47°35' W 122°22'0 0.0
2014-Dec-18 15:33N 47°35' W 122°22'1 0.1
2014-Dec-18 04:21N 47°34' W 122°21'0 0.6
2014-Dec-18 03:33N 47°34' W 122°21'1 0.5
2014-Dec-18 02:34N 47°35' W 122°22'1 1.4
2014-Dec-18 01:34N 47°34' W 122°21'2 1.7
2014-Dec-18 00:33N 47°35' W 122°21'3 2.7
2014-Dec-17 23:34N 47°33' W 122°20'0 0.0
2014-Dec-17 22:33N 47°33' W 122°20'1 0.8
2014-Dec-17 21:33N 47°33' W 122°21'2 1.9
2014-Dec-17 20:33N 47°35' W 122°21'1 0.9
2014-Dec-17 19:33N 47°34' W 122°21'0 0.5
2014-Dec-17 18:33N 47°34' W 122°21'1 0.1
2014-Dec-16 21:33N 47°33' W 122°20'3 2.6
2014-Dec-16 20:33N 47°35' W 122°21'0 0.0
2014-Dec-16 19:33N 47°35' W 122°21'1 1.5
2014-Dec-16 18:33N 47°34' W 122°21'0 0.3
2014-Dec-16 17:33N 47°34' W 122°21'0 0.0
2014-Dec-16 16:33N 47°34' W 122°21'0 0.4
2014-Dec-16 15:33N 47°34' W 122°21'1 0.0
2014-Dec-16 02:33N 47°33' W 122°21'0 0.0
2014-Dec-16 01:10N 47°33' W 122°20'3 2.8
2014-Dec-16 00:16N 47°36' W 122°21'1 0.9
2014-Dec-15 23:34N 47°35' W 122°22'2 2.3
2014-Dec-15 22:33N 47°33' W 122°21'0 0.0
2014-Dec-15 21:33N 47°33' W 122°21'0 0.1
2014-Dec-15 20:33N 47°33' W 122°21'0 0.0
2014-Dec-15 19:33N 47°33' W 122°21'1 0.5
2014-Dec-15 18:33N 47°34' W 122°21'2 1.6
2014-Dec-15 17:33N 47°35' W 122°20'2 2.2
2014-Dec-15 16:34N 47°33' W 122°21'1 0.9
2014-Dec-15 15:33N 47°34' W 122°21'0 0.0
2014-Dec-15 14:33N 47°34' W 122°21'0 0.0
2014-Dec-15 13:34N 47°34' W 122°21'0 0.0
2014-Dec-15 12:33N 47°34' W 122°21'0 0.0
2014-Dec-15 11:34N 47°34' W 122°21'0 0.0
2014-Dec-15 10:34N 47°34' W 122°21'0 0.0
2014-Dec-15 09:33N 47°34' W 122°21'0 0.1
2014-Dec-15 08:30N 47°34' W 122°21'1 0.9
2014-Dec-15 07:33N 47°33' W 122°21'1 0.8
2014-Dec-15 06:22N 47°34' W 122°21'2 2.2
2014-Dec-15 05:34N 47°36' W 122°22'2 1.7
2014-Dec-15 04:34N 47°34' W 122°21'0 0.0
2014-Dec-15 03:33N 47°34' W 122°21'0 0.0
2014-Dec-15 02:34N 47°34' W 122°21'0 0.0
2014-Dec-15 01:34N 47°34' W 122°21'0 0.0
2014-Dec-15 00:33N 47°34' W 122°21'1 1.0
2014-Dec-14 23:33N 47°33' W 122°21'0 0.1
2014-Dec-14 22:33N 47°33' W 122°21'0 0.0
2014-Dec-14 21:33N 47°33' W 122°21'0 0.2
2014-Dec-14 20:33N 47°33' W 122°21'0 0.2
2014-Dec-14 19:34N 47°33' W 122°21'2 0.1
2014-Dec-14 00:33N 47°35' W 122°21'3 2.6
2014-Dec-13 23:33N 47°33' W 122°20'0 0.5
2014-Dec-13 22:33N 47°33' W 122°21'0 0.0
2014-Dec-13 21:33N 47°33' W 122°21'0 0.0
2014-Dec-13 20:33N 47°33' W 122°21'2 1.6
2014-Dec-13 19:33N 47°35' W 122°22'1 0.6
2014-Dec-13 18:33N 47°34' W 122°21'1 1.0
2014-Dec-13 17:33N 47°35' W 122°22'1 1.2
2014-Dec-13 16:33N 47°34' W 122°21'0 0.1
2014-Dec-13 15:33N 47°34' W 122°21'0 0.0
2014-Dec-13 14:33N 47°34' W 122°21'0 0.0
2014-Dec-13 13:33N 47°34' W 122°21'0 0.0
2014-Dec-13 12:33N 47°34' W 122°21'0 0.0
2014-Dec-13 11:33N 47°34' W 122°21'0 0.0
2014-Dec-13 10:33N 47°34' W 122°21'0 0.0
2014-Dec-13 09:33N 47°34' W 122°21'0 0.0
2014-Dec-13 08:34N 47°34' W 122°21'0 0.0
2014-Dec-13 07:33N 47°34' W 122°21'2 1.7
2014-Dec-13 06:33N 47°35' W 122°22'1 1.1
2014-Dec-13 05:33N 47°34' W 122°21'1 1.4
2014-Dec-13 04:33N 47°36' W 122°22'1 0.9
2014-Dec-13 03:33N 47°35' W 122°22'0 0.4
2014-Dec-13 02:33N 47°35' W 122°22'2 1.7
2014-Dec-13 01:33N 47°33' W 122°20'3 3.0
2014-Dec-13 00:33N 47°36' W 122°20'1 1.1
2014-Dec-12 23:33N 47°35' W 122°21'0 0.4
2014-Dec-12 22:33N 47°35' W 122°21'1 0.8
2014-Dec-12 21:33N 47°36' W 122°22'2 2.0
2014-Dec-12 20:33N 47°34' W 122°21'0 0.0
2014-Dec-11 06:06N 47°34' W 122°21'1 1.1
2014-Dec-11 05:33N 47°34' W 122°21'2 1.5
2014-Dec-11 04:33N 47°33' W 122°20'0 0.4
2014-Dec-11 03:32N 47°33' W 122°20'4 3.9
2014-Dec-11 02:34N 47°36' W 122°23'3 3.4
2014-Dec-11 01:34N 47°33' W 122°20'1 0.9
2014-Dec-11 00:34N 47°34' W 122°21'  

Dump ship's entire track history